| Date | Time | Temp. (oF) | Dew Point (oF) | Rel. Hum. (%) | Press. (in.) | Wind Dir. | Wind Speed (mph) | Hourly Rainfall (in.) |
|
|---|---|---|---|---|---|---|---|---|---|
| 1 | miss | miss | miss | miss | miss | miss | miss | miss | |
| 2 | 03/11 | 23:00 | 42 | 35 | 78 | 30.37 | ENE | 0 | 0.00 |
| 3 | 03/11 | 22:00 | 45 | 36 | 71 | 30.38 | SSE | 2 | 0.00 |
| 4 | miss | miss | miss | miss | miss | miss | miss | miss | |
| 5 | 03/11/12 | 70 | 37 | 30 | 0.00 | 02MPH | 0 | 0.00 | |
| 6 | miss | miss | miss | miss | miss | miss | miss | miss | |
| 7 | 03/11/12 | 70 | 37 | 30 | 0.00 | 02MPH | 0 | 0.00 | |
| 8 | miss | miss | miss | miss | miss | miss | miss | miss | |
| 9 | 03/11/12 | 70 | 37 | 30 | 0.00 | 02MPH | 0 | 0.00 | |
| 10 | miss | miss | miss | miss | miss | miss | miss | miss | |
| 11 | 03/11/12 | 70 | 37 | 30 | 0.00 | 02MPH | 0 | 0.00 | |
| 12 | miss | miss | miss | miss | miss | miss | miss | miss | |
| 13 | 03/11/12 | 70 | 37 | 30 | 0.00 | 02MPH | 0 | 0.00 | |
| 14 | miss | miss | miss | miss | miss | miss | miss | miss | |
| 15 | 03/11/12 | 70 | 37 | 30 | 0.00 | 02MPH | 0 | 0.00 | |
| 16 | miss | miss | miss | miss | miss | miss | miss | miss | |
| 17 | 03/11/12 | 70 | 37 | 30 | 0.00 | 02MPH | 0 | 0.00 | |
| 18 | miss | miss | miss | miss | miss | miss | miss | miss | |
| 19 | 03/11/12 | 70 | 37 | 30 | 0.00 | 02MPH | 0 | 0.00 | |
| 20 | miss | miss | miss | miss | miss | miss | miss | miss | |
| 21 | 03/11/12 | 70 | 37 | 30 | 0.00 | 02MPH | 0 | 0.00 | |
| 22 | miss | miss | miss | miss | miss | miss | miss | miss | |
| 23 | 03/11 | 21:48 | 45 | 35 | 70 | 30.38 | SSE | 3 | 0.00 |
| 24 | miss | miss | miss | miss | miss | miss | miss | miss | |
| 25 | 03/11 | 21:46 | 45 | 35 | 70 | 30.38 | SSE | 2 | 0.00 |
| 26 | miss | miss | miss | miss | miss | miss | miss | miss | |
| 27 | 03/11 | 21:46 | 45 | 35 | 70 | 30.38 | SSE | 2 | 0.00 |
| 28 | 03/11 | 21:00 | 46 | 34 | 65 | 30.37 | SSE | 5 | 0.00 |
| 29 | 03/11 | 20:00 | 47 | 33 | 60 | 30.36 | S | 4 | 0.00 |
| 30 | 03/11 | 19:00 | 50 | 34 | 55 | 30.35 | SSE | 8 | 0.00 |
| 31 | 03/11 | 18:00 | 55 | 34 | 46 | 30.33 | S | 5 | 0.00 |
| 32 | 03/11 | 17:00 | 59 | 31 | 36 | 30.32 | S | 10 | 0.00 |
| 33 | 03/11 | 16:00 | 61 | 32 | 34 | 30.33 | SSE | 6 | 0.00 |
| 34 | 03/11 | 15:00 | 61 | 32 | 34 | 30.35 | SSE | 10 | 0.00 |
| 35 | 03/11 | 14:00 | 58 | 29 | 34 | 30.39 | SSW | 6 | 0.00 |
| 36 | 03/11 | 13:00 | 56 | 32 | 41 | 30.44 | SSE | 10 | 0.00 |
| 37 | 03/11 | 12:00 | 53 | 30 | 42 | 30.48 | SSE | 6 | 0.00 |
| 38 | 03/11 | 11:00 | 49 | 29 | 46 | 30.51 | SSE | 4 | 0.00 |
| 39 | 03/11 | 10:00 | 45 | 28 | 53 | 30.54 | SSE | 9 | 0.00 |
| 40 | 03/11 | 09:00 | 40 | 27 | 61 | 30.55 | SSE | 9 | 0.00 |
| 41 | 03/11 | 08:00 | 33 | 26 | 78 | 30.55 | SSE | 3 | 0.00 |
| 42 | 03/11 | 07:00 | 26 | 23 | 91 | 30.55 | NNE | 0 | 0.00 |
| 43 | 03/11 | 06:00 | 26 | 21 | 84 | 30.54 | NE | 0 | 0.00 |
| 44 | 03/11 | 05:00 | 29 | 22 | 75 | 30.54 | SSW | 0 | 0.00 |
| 45 | 03/11 | 04:00 | 28 | 21 | 77 | 30.52 | S | 0 | 0.00 |
| 46 | 03/11 | 03:00 | 27 | 20 | 77 | 30.53 | S | 1 | 0.00 |
| 47 | 03/11 | 02:00 | 28 | 19 | 71 | 30.54 | E | 0 | 0.00 |
| 48 | 03/11 | 01:00 | 28 | 18 | 67 | 30.54 | ENE | 1 | 0.00 |
| 49 | 03/11 | 00:00 | 29 | 18 | 64 | 30.54 | ESE | 0 | 0.00 |
| 50 | 03/10 | 23:00 | 30 | 16 | 57 | 30.53 | S | 0 | 0.00 |
| 51 | 03/10 | 22:00 | 30 | 19 | 65 | 30.53 | S | 1 | 0.00 |
| 52 | 03/10 | 21:00 | 32 | 17 | 54 | 30.52 | S | 1 | 0.00 |
| 53 | 03/10 | 20:00 | 34 | 13 | 42 | 30.52 | SSE | 0 | 0.00 |
| 54 | 03/10 | 19:00 | 37 | 14 | 40 | 30.51 | SSE | 2 | 0.00 |
| 55 | 03/10 | 18:00 | 39 | 13 | 35 | 30.51 | S | 5 | 0.00 |
| 56 | 03/10 | 17:00 | 41 | 11 | 30 | 30.48 | N | 4 | 0.00 |
| 57 | 03/10 | 16:00 | 41 | 14 | 34 | 30.48 | WSW | 2 | 0.00 |
| 58 | 03/10 | 15:00 | 41 | 15 | 36 | 30.48 | NE | 2 | 0.00 |
| 59 | 03/10 | 14:00 | 39 | 16 | 40 | 30.50 | NNE | 8 | 0.00 |
| 60 | 03/10 | 13:00 | 38 | 13 | 37 | 30.54 | NE | 5 | 0.00 |
| 61 | 03/10 | 12:00 | 37 | 18 | 46 | 30.56 | WSW | 11 | 0.00 |
| 62 | 03/10 | 11:00 | 34 | 12 | 41 | 30.57 | N | 10 | 0.00 |
| 63 | 03/10 | 10:00 | 32 | 10 | 40 | 30.58 | N | 8 | 0.00 |
| 64 | 03/10 | 09:00 | 31 | 12 | 45 | 30.56 | N | 13 | 0.00 |
| 65 | 03/10 | 08:00 | 29 | 12 | 50 | 30.54 | ESE | 14 | 0.00 |
| 66 | 03/10 | 07:00 | 27 | 13 | 57 | 30.51 | N | 4 | 0.00 |
| 67 | 03/10 | 06:00 | 28 | 14 | 56 | 30.47 | WSW | 6 | 0.00 |
| 68 | 03/10 | 05:00 | 29 | 14 | 54 | 30.44 | NNE | 8 | 0.00 |
| 69 | 03/10 | 04:00 | 29 | 13 | 53 | 30.41 | N | 7 | 0.00 |
| 70 | 03/10 | 03:00 | 30 | 14 | 52 | 30.39 | SW | 5 | 0.00 |
| 71 | 03/10 | 02:00 | 32 | 14 | 49 | 30.40 | WSW | 6 | 0.00 |
| 72 | 03/10 | 01:00 | 33 | 17 | 52 | 30.37 | W | 7 | 0.00 |
| 73 | 03/10 | 00:00 | 34 | 18 | 53 | 30.35 | N | 4 | 0.00 |
| 74 | 03/09 | 23:00 | 35 | 17 | 48 | 30.34 | W | 7 | 0.00 |